No.33asakawamaru — JK5322 — position and weather

sailwx.info

Track history (hours):
 
Tides and Currents Weather Stations Pressure Air Temp Water Temp Dewpoint Dewpoint Depression Visibility Wind Speed Wind Dir Waves Ship Positions

No.33asakawamaru

Last reported at 2018-Feb-22 18:58 UTC. Time now 2018-Feb-22 19:16 UTC.
Position N 35°28' E 139°44'.

Length 67 m.

Type: Tanker. MMSI: 431000927.

Date/timePositionNaut miles runAvg speedWind from/ knotsBaromVisibWave heightAir tempDewpointWater temp
2018-Feb-22 18:58N 35°28' E 139°44'0 0.0
2018-Feb-22 18:28N 35°28' E 139°44'0 0.0
2018-Feb-22 17:58N 35°28' E 139°44'0 0.0
2018-Feb-22 17:28N 35°28' E 139°44'0 0.0
2018-Feb-22 16:55N 35°28' E 139°44'0 0.0
2018-Feb-22 16:28N 35°28' E 139°44'0 0.0
2018-Feb-22 15:55N 35°28' E 139°44'0 0.0
2018-Feb-22 15:28N 35°28' E 139°44'0 0.0
2018-Feb-22 14:58N 35°28' E 139°44'0 0.1
2018-Feb-22 14:28N 35°28' E 139°44'0 0.0
2018-Feb-22 13:55N 35°28' E 139°44'0 0.0
2018-Feb-22 13:25N 35°28' E 139°44'0 0.0
2018-Feb-22 12:58N 35°28' E 139°44'0 0.0
2018-Feb-22 12:25N 35°28' E 139°44'0 0.0
2018-Feb-22 11:49N 35°28' E 139°44'0 0.0
2018-Feb-22 11:25N 35°28' E 139°44'0 0.0
2018-Feb-22 10:58N 35°28' E 139°44'0 0.1
2018-Feb-22 10:25N 35°28' E 139°44'4 8.9
2018-Feb-22 09:59N 35°29' E 139°49'1110.9
2018-Feb-22 08:57N 35°33' E 140°01'4 1.2
2018-Feb-22 05:53N 35°33' E 140°06'2 6.3
2018-Feb-22 05:30N 35°34' E 140°03'1410.2
2018-Feb-22 04:04N 35°30' E 139°46'110.4
2018-Feb-22 04:00N 35°30' E 139°45'2 3.2
2018-Feb-22 03:28N 35°29' E 139°43'0 0.0
2018-Feb-22 02:58N 35°29' E 139°43'0 0.0
2018-Feb-22 02:25N 35°29' E 139°43'0 0.0
2018-Feb-22 01:58N 35°29' E 139°43'0 0.0
2018-Feb-22 01:22N 35°29' E 139°43'0 0.0
2018-Feb-22 00:58N 35°29' E 139°43'0 0.0
2018-Feb-22 00:28N 35°29' E 139°43'0 0.0
2018-Feb-21 23:52N 35°29' E 139°43'0 0.0
2018-Feb-21 23:22N 35°29' E 139°43'1 2.6
2018-Feb-21 23:00N 35°30' E 139°44'3 3.5
2018-Feb-21 22:03N 35°29' E 139°48'0 6.8
2018-Feb-21 22:00N 35°28' E 139°48'4 9.0
2018-Feb-21 21:30N 35°24' E 139°46'5 9.6
2018-Feb-21 21:00N 35°20' E 139°44'710.1
2018-Feb-21 20:21N 35°13' E 139°47'247 9.2
2018-Feb-20 17:40N 34°03' E 134°60'212.2
2018-Feb-20 17:30N 34°05' E 134°60'612.1
2018-Feb-20 17:00N 34°11' E 134°59'611.6
2018-Feb-20 16:30N 34°17' E 134°59'510.8
2018-Feb-20 16:00N 34°22' E 134°59'611.4
2018-Feb-20 15:30N 34°28' E 135°00'611.0
2018-Feb-20 14:58N 34°33' E 135°02'4 7.6
2018-Feb-20 14:30N 34°37' E 135°01'4 8.5
2018-Feb-20 14:00N 34°35' E 134°56'5 9.6
2018-Feb-20 13:29N 34°33' E 134°51'510.4
2018-Feb-20 12:58N 34°31' E 134°45'611.0
2018-Feb-20 12:25N 34°28' E 134°38'  
2018-Feb-16 11:57N 35°15' E 139°46'512.4
2018-Feb-16 11:30N 35°19' E 139°43'611.3
2018-Feb-16 11:00N 35°25' E 139°43'611.9
2018-Feb-16 10:30N 35°28' E 139°49'1011.3
2018-Feb-16 09:38N 35°33' E 139°60'211.5
2018-Feb-16 09:28N 35°33' E 140°02'3 0.8
2018-Feb-16 05:46N 35°33' E 140°06'2 5.5
2018-Feb-16 05:28N 35°33' E 140°04'1010.4
2018-Feb-16 04:30N 35°28' E 139°54'510.5
2018-Feb-16 04:00N 35°23' E 139°52'2 1.2
2018-Feb-16 02:39N 35°22' E 139°53'0 0.0
2018-Feb-16 02:15N 35°22' E 139°53'0 0.0
2018-Feb-16 01:57N 35°22' E 139°53'0 0.0
2018-Feb-16 01:27N 35°22' E 139°53'0 0.0
2018-Feb-16 00:57N 35°22' E 139°53'0 0.0
2018-Feb-16 00:27N 35°22' E 139°53'0 0.0
2018-Feb-16 00:00N 35°22' E 139°53'0 0.0
2018-Feb-15 23:30N 35°22' E 139°53'1 1.4
2018-Feb-15 22:58N 35°22' E 139°52'5 9.5
2018-Feb-15 22:29N 35°27' E 139°53'2 1.1
2018-Feb-15 20:44N 35°28' E 139°54'0 0.0
2018-Feb-15 20:23N 35°28' E 139°54'0 0.0
2018-Feb-15 19:59N 35°28' E 139°54'0 0.0
2018-Feb-15 19:23N 35°28' E 139°54'0 0.0
2018-Feb-15 18:53N 35°28' E 139°54'0 0.0
2018-Feb-15 17:29N 35°28' E 139°54'0 0.0
2018-Feb-15 13:40N 35°28' E 139°54'0 0.0
2018-Feb-15 13:08N 35°28' E 139°54'0 0.0
2018-Feb-15 12:47N 35°28' E 139°54'0 0.0
2018-Feb-15 11:26N 35°28' E 139°54'0 0.1
2018-Feb-15 09:11N 35°28' E 139°54'811.7
2018-Feb-15 08:31N 35°33' E 140°02'111.6
2018-Feb-15 08:26N 35°33' E 140°03'2 0.7
2018-Feb-15 05:40N 35°33' E 140°06'0 1.6
2018-Feb-15 05:30N 35°33' E 140°06'1510.3
2018-Feb-15 04:00N 35°30' E 139°47'4 6.9
2018-Feb-15 03:29N 35°29' E 139°43'0 0.0
2018-Feb-15 02:59N 35°29' E 139°43'0 0.0
2018-Feb-15 02:20N 35°29' E 139°43'0 0.0
2018-Feb-15 01:56N 35°29' E 139°43'0 0.0
2018-Feb-15 01:26N 35°29' E 139°43'0 0.0
2018-Feb-15 00:50N 35°29' E 139°43'0 0.0
2018-Feb-15 00:23N 35°29' E 139°43'0 0.0
2018-Feb-14 23:56N 35°29' E 139°43'0 0.0
2018-Feb-14 23:29N 35°29' E 139°43'2 4.5
2018-Feb-14 22:59N 35°30' E 139°45'13 0.3
2018-Feb-13 08:12N 35°35' E 140°00'210.7
2018-Feb-13 08:00N 35°34' E 140°03'3 0.9
2018-Feb-13 05:05N 35°33' E 140°06'0 0.0
2018-Feb-13 04:02N 35°33' E 140°06'0 0.4
2018-Feb-13 04:00N 35°33' E 140°06'2 3.9
2018-Feb-13 03:30N 35°35' E 140°06'0 0.4
2018-Feb-13 02:57N 35°35' E 140°07'0 0.0
2018-Feb-13 02:27N 35°35' E 140°07'0 0.0
2018-Feb-13 01:58N 35°35' E 140°07'0 0.0
2018-Feb-13 01:28N 35°35' E 140°07'0 0.0
2018-Feb-13 00:57N 35°35' E 140°07'0 0.0
2018-Feb-13 00:27N 35°35' E 140°07'0 0.0
2018-Feb-12 23:58N 35°35' E 140°07'0 0.0
2018-Feb-12 23:27N 35°35' E 140°07'0 0.0
2018-Feb-12 22:57N 35°35' E 140°07'0 0.0
2018-Feb-12 22:31N 35°35' E 140°07'3 5.8
2018-Feb-12 22:00N 35°35' E 140°03'  
Track history (hours):
 
Tides and Currents Weather Stations Pressure Air Temp Water Temp Dewpoint Dewpoint Depression Visibility Wind Speed Wind Dir Waves Ship Positions

No.33asakawamaru

Last reported at 2018-Feb-22 18:58 UTC. Time now 2018-Feb-22 19:16 UTC.
Position N 35°28' E 139°44'.

Length 67 m.

Type: Tanker. MMSI: 431000927.

Date/timePositionNaut miles runAvg speedWind from/ knotsBaromVisibWave heightAir tempDewpointWater temp
2018-Feb-22 18:58N 35°28' E 139°44'0 0.0
2018-Feb-22 18:28N 35°28' E 139°44'0 0.0
2018-Feb-22 17:58N 35°28' E 139°44'0 0.0
2018-Feb-22 17:28N 35°28' E 139°44'0 0.0
2018-Feb-22 16:55N 35°28' E 139°44'0 0.0
2018-Feb-22 16:28N 35°28' E 139°44'0 0.0
2018-Feb-22 15:55N 35°28' E 139°44'0 0.0
2018-Feb-22 15:28N 35°28' E 139°44'0 0.0
2018-Feb-22 14:58N 35°28' E 139°44'0 0.1
2018-Feb-22 14:28N 35°28' E 139°44'0 0.0
2018-Feb-22 13:55N 35°28' E 139°44'0 0.0
2018-Feb-22 13:25N 35°28' E 139°44'0 0.0
2018-Feb-22 12:58N 35°28' E 139°44'0 0.0
2018-Feb-22 12:25N 35°28' E 139°44'0 0.0
2018-Feb-22 11:49N 35°28' E 139°44'0 0.0
2018-Feb-22 11:25N 35°28' E 139°44'0 0.0
2018-Feb-22 10:58N 35°28' E 139°44'0 0.1
2018-Feb-22 10:25N 35°28' E 139°44'4 8.9
2018-Feb-22 09:59N 35°29' E 139°49'1110.9
2018-Feb-22 08:57N 35°33' E 140°01'4 1.2
2018-Feb-22 05:53N 35°33' E 140°06'2 6.3
2018-Feb-22 05:30N 35°34' E 140°03'1410.2
2018-Feb-22 04:04N 35°30' E 139°46'110.4
2018-Feb-22 04:00N 35°30' E 139°45'2 3.2
2018-Feb-22 03:28N 35°29' E 139°43'0 0.0
2018-Feb-22 02:58N 35°29' E 139°43'0 0.0
2018-Feb-22 02:25N 35°29' E 139°43'0 0.0
2018-Feb-22 01:58N 35°29' E 139°43'0 0.0
2018-Feb-22 01:22N 35°29' E 139°43'0 0.0
2018-Feb-22 00:58N 35°29' E 139°43'0 0.0
2018-Feb-22 00:28N 35°29' E 139°43'0 0.0
2018-Feb-21 23:52N 35°29' E 139°43'0 0.0
2018-Feb-21 23:22N 35°29' E 139°43'1 2.6
2018-Feb-21 23:00N 35°30' E 139°44'3 3.5
2018-Feb-21 22:03N 35°29' E 139°48'0 6.8
2018-Feb-21 22:00N 35°28' E 139°48'4 9.0
2018-Feb-21 21:30N 35°24' E 139°46'5 9.6
2018-Feb-21 21:00N 35°20' E 139°44'710.1
2018-Feb-21 20:21N 35°13' E 139°47'247 9.2
2018-Feb-20 17:40N 34°03' E 134°60'212.2
2018-Feb-20 17:30N 34°05' E 134°60'612.1
2018-Feb-20 17:00N 34°11' E 134°59'611.6
2018-Feb-20 16:30N 34°17' E 134°59'510.8
2018-Feb-20 16:00N 34°22' E 134°59'611.4
2018-Feb-20 15:30N 34°28' E 135°00'611.0
2018-Feb-20 14:58N 34°33' E 135°02'4 7.6
2018-Feb-20 14:30N 34°37' E 135°01'4 8.5
2018-Feb-20 14:00N 34°35' E 134°56'5 9.6
2018-Feb-20 13:29N 34°33' E 134°51'510.4
2018-Feb-20 12:58N 34°31' E 134°45'611.0
2018-Feb-20 12:25N 34°28' E 134°38'  
2018-Feb-16 11:57N 35°15' E 139°46'512.4
2018-Feb-16 11:30N 35°19' E 139°43'611.3
2018-Feb-16 11:00N 35°25' E 139°43'611.9
2018-Feb-16 10:30N 35°28' E 139°49'1011.3
2018-Feb-16 09:38N 35°33' E 139°60'211.5
2018-Feb-16 09:28N 35°33' E 140°02'3 0.8
2018-Feb-16 05:46N 35°33' E 140°06'2 5.5
2018-Feb-16 05:28N 35°33' E 140°04'1010.4
2018-Feb-16 04:30N 35°28' E 139°54'510.5
2018-Feb-16 04:00N 35°23' E 139°52'2 1.2
2018-Feb-16 02:39N 35°22' E 139°53'0 0.0
2018-Feb-16 02:15N 35°22' E 139°53'0 0.0
2018-Feb-16 01:57N 35°22' E 139°53'0 0.0
2018-Feb-16 01:27N 35°22' E 139°53'0 0.0
2018-Feb-16 00:57N 35°22' E 139°53'0 0.0
2018-Feb-16 00:27N 35°22' E 139°53'0 0.0
2018-Feb-16 00:00N 35°22' E 139°53'0 0.0
2018-Feb-15 23:30N 35°22' E 139°53'1 1.4
2018-Feb-15 22:58N 35°22' E 139°52'5 9.5
2018-Feb-15 22:29N 35°27' E 139°53'2 1.1
2018-Feb-15 20:44N 35°28' E 139°54'0 0.0
2018-Feb-15 20:23N 35°28' E 139°54'0 0.0
2018-Feb-15 19:59N 35°28' E 139°54'0 0.0
2018-Feb-15 19:23N 35°28' E 139°54'0 0.0
2018-Feb-15 18:53N 35°28' E 139°54'0 0.0
2018-Feb-15 17:29N 35°28' E 139°54'0 0.0
2018-Feb-15 13:40N 35°28' E 139°54'0 0.0
2018-Feb-15 13:08N 35°28' E 139°54'0 0.0
2018-Feb-15 12:47N 35°28' E 139°54'0 0.0
2018-Feb-15 11:26N 35°28' E 139°54'0 0.1
2018-Feb-15 09:11N 35°28' E 139°54'811.7
2018-Feb-15 08:31N 35°33' E 140°02'111.6
2018-Feb-15 08:26N 35°33' E 140°03'2 0.7
2018-Feb-15 05:40N 35°33' E 140°06'0 1.6
2018-Feb-15 05:30N 35°33' E 140°06'1510.3
2018-Feb-15 04:00N 35°30' E 139°47'4 6.9
2018-Feb-15 03:29N 35°29' E 139°43'0 0.0
2018-Feb-15 02:59N 35°29' E 139°43'0 0.0
2018-Feb-15 02:20N 35°29' E 139°43'0 0.0
2018-Feb-15 01:56N 35°29' E 139°43'0 0.0
2018-Feb-15 01:26N 35°29' E 139°43'0 0.0
2018-Feb-15 00:50N 35°29' E 139°43'0 0.0
2018-Feb-15 00:23N 35°29' E 139°43'0 0.0
2018-Feb-14 23:56N 35°29' E 139°43'0 0.0
2018-Feb-14 23:29N 35°29' E 139°43'2 4.5
2018-Feb-14 22:59N 35°30' E 139°45'13 0.3
2018-Feb-13 08:12N 35°35' E 140°00'210.7
2018-Feb-13 08:00N 35°34' E 140°03'3 0.9
2018-Feb-13 05:05N 35°33' E 140°06'0 0.0
2018-Feb-13 04:02N 35°33' E 140°06'0 0.4
2018-Feb-13 04:00N 35°33' E 140°06'2 3.9
2018-Feb-13 03:30N 35°35' E 140°06'0 0.4
2018-Feb-13 02:57N 35°35' E 140°07'0 0.0
2018-Feb-13 02:27N 35°35' E 140°07'0 0.0
2018-Feb-13 01:58N 35°35' E 140°07'0 0.0
2018-Feb-13 01:28N 35°35' E 140°07'0 0.0
2018-Feb-13 00:57N 35°35' E 140°07'0 0.0
2018-Feb-13 00:27N 35°35' E 140°07'0 0.0
2018-Feb-12 23:58N 35°35' E 140°07'0 0.0
2018-Feb-12 23:27N 35°35' E 140°07'0 0.0
2018-Feb-12 22:57N 35°35' E 140°07'0 0.0
2018-Feb-12 22:31N 35°35' E 140°07'3 5.8
2018-Feb-12 22:00N 35°35' E 140°03'  

Dump ship's entire track history